sensor_id;sensor_type;location;lat;lon;timestamp;P1;P2;P0
56175;PMS5003;63065;51.082;17.016;2022-09-09T00:00:29;21;18;
56175;PMS5003;63065;51.082;17.016;2022-09-09T00:02:55;24;21;
56175;PMS5003;63065;51.082;17.016;2022-09-09T00:05:19;19;17;
56175;PMS5003;63065;51.082;17.016;2022-09-09T00:07:45;24;20;
56175;PMS5003;63065;51.082;17.016;2022-09-09T00:10:14;24;22;
56175;PMS5003;63065;51.082;17.016;2022-09-09T00:12:36;21;21;
56175;PMS5003;63065;51.082;17.016;2022-09-09T00:15:01;22;19;
56175;PMS5003;63065;51.082;17.016;2022-09-09T00:17:29;20;20;
56175;PMS5003;63065;51.082;17.016;2022-09-09T00:19:53;19;18;
56175;PMS5003;63065;51.082;17.016;2022-09-09T00:22:17;20;19;
56175;PMS5003;63065;51.082;17.016;2022-09-09T00:24:43;23;22;
56175;PMS5003;63065;51.082;17.016;2022-09-09T00:27:08;22;18;
56175;PMS5003;63065;51.082;17.016;2022-09-09T00:29:33;23;23;
56175;PMS5003;63065;51.082;17.016;2022-09-09T00:31:59;22;20;
56175;PMS5003;63065;51.082;17.016;2022-09-09T00:34:23;22;19;
56175;PMS5003;63065;51.082;17.016;2022-09-09T00:36:48;21;20;
56175;PMS5003;63065;51.082;17.016;2022-09-09T00:39:17;19;19;
56175;PMS5003;63065;51.082;17.016;2022-09-09T00:41:43;17;17;
56175;PMS5003;63065;51.082;17.016;2022-09-09T00:44:10;20;17;
56175;PMS5003;63065;51.082;17.016;2022-09-09T00:48:58;28;24;
56175;PMS5003;63065;51.082;17.016;2022-09-09T00:51:24;22;21;
56175;PMS5003;63065;51.082;17.016;2022-09-09T00:56:12;20;20;
56175;PMS5003;63065;51.082;17.016;2022-09-09T00:58:38;21;21;
56175;PMS5003;63065;51.082;17.016;2022-09-09T01:01:03;25;23;
56175;PMS5003;63065;51.082;17.016;2022-09-09T01:03:30;20;19;
56175;PMS5003;63065;51.082;17.016;2022-09-09T01:05:56;25;21;
56175;PMS5003;63065;51.082;17.016;2022-09-09T01:08:25;21;18;
56175;PMS5003;63065;51.082;17.016;2022-09-09T01:10:47;26;22;
56175;PMS5003;63065;51.082;17.016;2022-09-09T01:13:13;21;20;
56175;PMS5003;63065;51.082;17.016;2022-09-09T01:15:36;18;18;
56175;PMS5003;63065;51.082;17.016;2022-09-09T01:18:03;21;20;
56175;PMS5003;63065;51.082;17.016;2022-09-09T01:20:27;21;21;
56175;PMS5003;63065;51.082;17.016;2022-09-09T01:22:56;18;18;
56175;PMS5003;63065;51.082;17.016;2022-09-09T01:25:19;19;19;
56175;PMS5003;63065;51.082;17.016;2022-09-09T01:27:42;19;16;
56175;PMS5003;63065;51.082;17.016;2022-09-09T01:30:09;28;26;
56175;PMS5003;63065;51.082;17.016;2022-09-09T01:34:58;19;19;
56175;PMS5003;63065;51.082;17.016;2022-09-09T01:37:24;20;18;
56175;PMS5003;63065;51.082;17.016;2022-09-09T01:39:49;20;20;
56175;PMS5003;63065;51.082;17.016;2022-09-09T01:42:15;20;19;
56175;PMS5003;63065;51.082;17.016;2022-09-09T01:44:40;23;21;
56175;PMS5003;63065;51.082;17.016;2022-09-09T01:47:05;25;20;
56175;PMS5003;63065;51.082;17.016;2022-09-09T01:49:31;19;19;
56175;PMS5003;63065;51.082;17.016;2022-09-09T01:51:56;23;20;
56175;PMS5003;63065;51.082;17.016;2022-09-09T01:54:23;20;19;
56175;PMS5003;63065;51.082;17.016;2022-09-09T01:56:50;26;24;
56175;PMS5003;63065;51.082;17.016;2022-09-09T01:59:17;23;22;
56175;PMS5003;63065;51.082;17.016;2022-09-09T02:01:42;21;20;
56175;PMS5003;63065;51.082;17.016;2022-09-09T02:04:05;23;20;
56175;PMS5003;63065;51.082;17.016;2022-09-09T02:06:30;23;23;
56175;PMS5003;63065;51.082;17.016;2022-09-09T02:08:55;27;24;
56175;PMS5003;63065;51.082;17.016;2022-09-09T02:11:21;22;22;
56175;PMS5003;63065;51.082;17.016;2022-09-09T02:13:46;20;18;
56175;PMS5003;63065;51.082;17.016;2022-09-09T02:16:12;20;20;
56175;PMS5003;63065;51.082;17.016;2022-09-09T02:18:38;24;21;
56175;PMS5003;63065;51.082;17.016;2022-09-09T02:21:02;23;22;
56175;PMS5003;63065;51.082;17.016;2022-09-09T02:23:27;22;20;
56175;PMS5003;63065;51.082;17.016;2022-09-09T02:25:53;20;19;
56175;PMS5003;63065;51.082;17.016;2022-09-09T02:28:18;23;22;
56175;PMS5003;63065;51.082;17.016;2022-09-09T02:30:44;21;21;
56175;PMS5003;63065;51.082;17.016;2022-09-09T02:33:09;21;21;
56175;PMS5003;63065;51.082;17.016;2022-09-09T02:35:34;25;23;
56175;PMS5003;63065;51.082;17.016;2022-09-09T02:38:01;24;21;
56175;PMS5003;63065;51.082;17.016;2022-09-09T02:40:25;22;22;
56175;PMS5003;63065;51.082;17.016;2022-09-09T02:42:50;21;20;
56175;PMS5003;63065;51.082;17.016;2022-09-09T02:45:16;26;24;
56175;PMS5003;63065;51.082;17.016;2022-09-09T02:47:43;21;21;
56175;PMS5003;63065;51.082;17.016;2022-09-09T02:50:10;24;24;
56175;PMS5003;63065;51.082;17.016;2022-09-09T02:52:36;24;23;
56175;PMS5003;63065;51.082;17.016;2022-09-09T02:54:59;21;21;
56175;PMS5003;63065;51.082;17.016;2022-09-09T02:57:25;21;21;
56175;PMS5003;63065;51.082;17.016;2022-09-09T02:59:49;24;22;
56175;PMS5003;63065;51.082;17.016;2022-09-09T03:02:15;22;20;
56175;PMS5003;63065;51.082;17.016;2022-09-09T03:04:41;20;19;
56175;PMS5003;63065;51.082;17.016;2022-09-09T03:07:07;20;20;
56175;PMS5003;63065;51.082;17.016;2022-09-09T03:09:32;20;19;
56175;PMS5003;63065;51.082;17.016;2022-09-09T03:11:58;22;22;
56175;PMS5003;63065;51.082;17.016;2022-09-09T03:14:23;22;21;
56175;PMS5003;63065;51.082;17.016;2022-09-09T03:16:48;18;18;
56175;PMS5003;63065;51.082;17.016;2022-09-09T03:19:13;20;20;
56175;PMS5003;63065;51.082;17.016;2022-09-09T03:21:39;22;22;
56175;PMS5003;63065;51.082;17.016;2022-09-09T03:24:04;23;22;
56175;PMS5003;63065;51.082;17.016;2022-09-09T03:26:29;23;23;
56175;PMS5003;63065;51.082;17.016;2022-09-09T03:28:55;20;19;
56175;PMS5003;63065;51.082;17.016;2022-09-09T03:31:20;27;25;
56175;PMS5003;63065;51.082;17.016;2022-09-09T03:33:46;21;20;
56175;PMS5003;63065;51.082;17.016;2022-09-09T03:36:11;27;24;
56175;PMS5003;63065;51.082;17.016;2022-09-09T03:38:37;23;21;
56175;PMS5003;63065;51.082;17.016;2022-09-09T03:41:02;19;18;
56175;PMS5003;63065;51.082;17.016;2022-09-09T03:43:28;19;17;
56175;PMS5003;63065;51.082;17.016;2022-09-09T03:45:53;22;21;
56175;PMS5003;63065;51.082;17.016;2022-09-09T03:48:19;19;19;
56175;PMS5003;63065;51.082;17.016;2022-09-09T03:50:44;21;21;
56175;PMS5003;63065;51.082;17.016;2022-09-09T03:53:10;22;20;
56175;PMS5003;63065;51.082;17.016;2022-09-09T03:55:35;22;19;
56175;PMS5003;63065;51.082;17.016;2022-09-09T03:58:01;23;21;
56175;PMS5003;63065;51.082;17.016;2022-09-09T04:00:26;23;21;
56175;PMS5003;63065;51.082;17.016;2022-09-09T04:02:51;20;18;
56175;PMS5003;63065;51.082;17.016;2022-09-09T04:05:17;19;19;
56175;PMS5003;63065;51.082;17.016;2022-09-09T04:07:42;22;22;
56175;PMS5003;63065;51.082;17.016;2022-09-09T04:10:08;22;20;
56175;PMS5003;63065;51.082;17.016;2022-09-09T04:12:34;29;25;
56175;PMS5003;63065;51.082;17.016;2022-09-09T04:14:59;21;19;
56175;PMS5003;63065;51.082;17.016;2022-09-09T04:17:25;25;21;
56175;PMS5003;63065;51.082;17.016;2022-09-09T04:19:51;24;22;
56175;PMS5003;63065;51.082;17.016;2022-09-09T04:22:16;23;21;
56175;PMS5003;63065;51.082;17.016;2022-09-09T04:24:42;21;20;
56175;PMS5003;63065;51.082;17.016;2022-09-09T04:27:07;20;18;
56175;PMS5003;63065;51.082;17.016;2022-09-09T04:29:33;24;20;
56175;PMS5003;63065;51.082;17.016;2022-09-09T04:31:59;20;20;
56175;PMS5003;63065;51.082;17.016;2022-09-09T04:34:24;23;20;
56175;PMS5003;63065;51.082;17.016;2022-09-09T04:36:50;19;18;
56175;PMS5003;63065;51.082;17.016;2022-09-09T04:39:15;18;18;
56175;PMS5003;63065;51.082;17.016;2022-09-09T04:41:40;26;25;
56175;PMS5003;63065;51.082;17.016;2022-09-09T04:44:05;24;22;
56175;PMS5003;63065;51.082;17.016;2022-09-09T04:46:31;22;20;
56175;PMS5003;63065;51.082;17.016;2022-09-09T04:48:56;24;24;
56175;PMS5003;63065;51.082;17.016;2022-09-09T04:51:22;22;22;
56175;PMS5003;63065;51.082;17.016;2022-09-09T04:53:47;23;21;
56175;PMS5003;63065;51.082;17.016;2022-09-09T04:56:13;17;17;
56175;PMS5003;63065;51.082;17.016;2022-09-09T04:58:38;23;23;
56175;PMS5003;63065;51.082;17.016;2022-09-09T05:01:04;23;23;
56175;PMS5003;63065;51.082;17.016;2022-09-09T05:03:28;23;22;
56175;PMS5003;63065;51.082;17.016;2022-09-09T05:05:54;24;23;
56175;PMS5003;63065;51.082;17.016;2022-09-09T05:08:19;21;21;
56175;PMS5003;63065;51.082;17.016;2022-09-09T05:10:44;22;21;
56175;PMS5003;63065;51.082;17.016;2022-09-09T05:13:11;21;19;
56175;PMS5003;63065;51.082;17.016;2022-09-09T05:15:35;21;20;
56175;PMS5003;63065;51.082;17.016;2022-09-09T05:18:01;22;20;
56175;PMS5003;63065;51.082;17.016;2022-09-09T05:20:26;24;22;
56175;PMS5003;63065;51.082;17.016;2022-09-09T05:22:52;19;19;
56175;PMS5003;63065;51.082;17.016;2022-09-09T05:25:17;24;21;
56175;PMS5003;63065;51.082;17.016;2022-09-09T05:27:42;18;18;
56175;PMS5003;63065;51.082;17.016;2022-09-09T05:30:08;23;23;
56175;PMS5003;63065;51.082;17.016;2022-09-09T05:32:32;20;20;
56175;PMS5003;63065;51.082;17.016;2022-09-09T05:34:58;19;18;
56175;PMS5003;63065;51.082;17.016;2022-09-09T05:37:23;20;18;
56175;PMS5003;63065;51.082;17.016;2022-09-09T05:39:49;26;22;
56175;PMS5003;63065;51.082;17.016;2022-09-09T05:42:14;19;17;
56175;PMS5003;63065;51.082;17.016;2022-09-09T05:44:40;16;14;
56175;PMS5003;63065;51.082;17.016;2022-09-09T05:47:05;16;16;
56175;PMS5003;63065;51.082;17.016;2022-09-09T05:49:30;22;19;
56175;PMS5003;63065;51.082;17.016;2022-09-09T05:51:56;19;18;
56175;PMS5003;63065;51.082;17.016;2022-09-09T05:54:22;14;14;
56175;PMS5003;63065;51.082;17.016;2022-09-09T05:56:48;19;18;
56175;PMS5003;63065;51.082;17.016;2022-09-09T05:59:13;18;18;
56175;PMS5003;63065;51.082;17.016;2022-09-09T06:01:38;19;18;
56175;PMS5003;63065;51.082;17.016;2022-09-09T06:04:04;21;20;
56175;PMS5003;63065;51.082;17.016;2022-09-09T06:06:30;17;16;
56175;PMS5003;63065;51.082;17.016;2022-09-09T06:08:55;18;16;
56175;PMS5003;63065;51.082;17.016;2022-09-09T06:11:21;14;14;
56175;PMS5003;63065;51.082;17.016;2022-09-09T06:13:46;15;15;
56175;PMS5003;63065;51.082;17.016;2022-09-09T06:16:12;14;14;
56175;PMS5003;63065;51.082;17.016;2022-09-09T06:18:37;18;18;
56175;PMS5003;63065;51.082;17.016;2022-09-09T06:21:04;18;17;
56175;PMS5003;63065;51.082;17.016;2022-09-09T06:23:28;15;15;
56175;PMS5003;63065;51.082;17.016;2022-09-09T06:28:19;15;15;
56175;PMS5003;63065;51.082;17.016;2022-09-09T06:30:45;14;14;
56175;PMS5003;63065;51.082;17.016;2022-09-09T06:33:09;17;16;
56175;PMS5003;63065;51.082;17.016;2022-09-09T06:35:35;17;14;
56175;PMS5003;63065;51.082;17.016;2022-09-09T06:38:01;20;19;
56175;PMS5003;63065;51.082;17.016;2022-09-09T06:40:27;17;16;
56175;PMS5003;63065;51.082;17.016;2022-09-09T06:42:52;15;14;
56175;PMS5003;63065;51.082;17.016;2022-09-09T06:45:18;18;16;
56175;PMS5003;63065;51.082;17.016;2022-09-09T06:47:43;17;17;
56175;PMS5003;63065;51.082;17.016;2022-09-09T06:50:09;13;13;
56175;PMS5003;63065;51.082;17.016;2022-09-09T06:52:35;18;17;
56175;PMS5003;63065;51.082;17.016;2022-09-09T06:55:01;20;17;
56175;PMS5003;63065;51.082;17.016;2022-09-09T06:57:26;15;14;
56175;PMS5003;63065;51.082;17.016;2022-09-09T06:59:52;17;17;
56175;PMS5003;63065;51.082;17.016;2022-09-09T07:02:18;15;14;
56175;PMS5003;63065;51.082;17.016;2022-09-09T07:04:43;16;15;
56175;PMS5003;63065;51.082;17.016;2022-09-09T07:07:08;16;16;
56175;PMS5003;63065;51.082;17.016;2022-09-09T07:09:34;13;12;
56175;PMS5003;63065;51.082;17.016;2022-09-09T07:12:00;12;12;
56175;PMS5003;63065;51.082;17.016;2022-09-09T07:14:25;21;17;
56175;PMS5003;63065;51.082;17.016;2022-09-09T07:16:50;22;20;
56175;PMS5003;63065;51.082;17.016;2022-09-09T07:19:15;16;15;
56175;PMS5003;63065;51.082;17.016;2022-09-09T07:21:41;14;14;
56175;PMS5003;63065;51.082;17.016;2022-09-09T07:24:06;18;17;
56175;PMS5003;63065;51.082;17.016;2022-09-09T07:26:31;13;11;
56175;PMS5003;63065;51.082;17.016;2022-09-09T07:28:57;10;10;
56175;PMS5003;63065;51.082;17.016;2022-09-09T07:31:24;11;11;
56175;PMS5003;63065;51.082;17.016;2022-09-09T07:33:48;17;15;
56175;PMS5003;63065;51.082;17.016;2022-09-09T07:36:15;17;12;
56175;PMS5003;63065;51.082;17.016;2022-09-09T07:38:40;13;13;
56175;PMS5003;63065;51.082;17.016;2022-09-09T07:41:06;13;13;
56175;PMS5003;63065;51.082;17.016;2022-09-09T07:43:31;14;11;
56175;PMS5003;63065;51.082;17.016;2022-09-09T07:45:57;12;12;
56175;PMS5003;63065;51.082;17.016;2022-09-09T07:48:22;12;12;
56175;PMS5003;63065;51.082;17.016;2022-09-09T07:50:48;11;11;
56175;PMS5003;63065;51.082;17.016;2022-09-09T07:53:13;9;9;
56175;PMS5003;63065;51.082;17.016;2022-09-09T07:55:38;9;9;
56175;PMS5003;63065;51.082;17.016;2022-09-09T07:58:04;10;10;
56175;PMS5003;63065;51.082;17.016;2022-09-09T08:00:30;7;7;
56175;PMS5003;63065;51.082;17.016;2022-09-09T08:02:56;7;6;
56175;PMS5003;63065;51.082;17.016;2022-09-09T08:05:21;8;8;
56175;PMS5003;63065;51.082;17.016;2022-09-09T08:07:47;9;7;
56175;PMS5003;63065;51.082;17.016;2022-09-09T08:10:13;9;9;
56175;PMS5003;63065;51.082;17.016;2022-09-09T08:12:38;8;6;
56175;PMS5003;63065;51.082;17.016;2022-09-09T08:15:05;8;8;
56175;PMS5003;63065;51.082;17.016;2022-09-09T08:17:30;5;5;
56175;PMS5003;63065;51.082;17.016;2022-09-09T08:19:55;8;8;
56175;PMS5003;63065;51.082;17.016;2022-09-09T08:22:21;7;7;
56175;PMS5003;63065;51.082;17.016;2022-09-09T08:24:46;5;5;
56175;PMS5003;63065;51.082;17.016;2022-09-09T08:27:12;6;6;
56175;PMS5003;63065;51.082;17.016;2022-09-09T08:29:38;6;6;
56175;PMS5003;63065;51.082;17.016;2022-09-09T08:32:03;6;5;
56175;PMS5003;63065;51.082;17.016;2022-09-09T08:34:29;5;4;
56175;PMS5003;63065;51.082;17.016;2022-09-09T08:36:55;5;5;
56175;PMS5003;63065;51.082;17.016;2022-09-09T08:39:21;5;5;
56175;PMS5003;63065;51.082;17.016;2022-09-09T08:44:13;5;5;
56175;PMS5003;63065;51.082;17.016;2022-09-09T08:46:41;10;6;
56175;PMS5003;63065;51.082;17.016;2022-09-09T08:49:05;6;6;
56175;PMS5003;63065;51.082;17.016;2022-09-09T08:51:29;7;7;
56175;PMS5003;63065;51.082;17.016;2022-09-09T08:53:54;5;5;
56175;PMS5003;63065;51.082;17.016;2022-09-09T08:56:21;6;6;
56175;PMS5003;63065;51.082;17.016;2022-09-09T08:58:47;7;7;
56175;PMS5003;63065;51.082;17.016;2022-09-09T09:01:16;5;5;
56175;PMS5003;63065;51.082;17.016;2022-09-09T09:03:40;3;3;
56175;PMS5003;63065;51.082;17.016;2022-09-09T09:06:04;8;8;
56175;PMS5003;63065;51.082;17.016;2022-09-09T09:08:30;6;6;
56175;PMS5003;63065;51.082;17.016;2022-09-09T09:10:55;6;6;
56175;PMS5003;63065;51.082;17.016;2022-09-09T09:13:20;6;6;
56175;PMS5003;63065;51.082;17.016;2022-09-09T09:15:46;7;7;
56175;PMS5003;63065;51.082;17.016;2022-09-09T09:18:12;8;6;
56175;PMS5003;63065;51.082;17.016;2022-09-09T09:20:39;11;8;
56175;PMS5003;63065;51.082;17.016;2022-09-09T09:23:02;6;6;
56175;PMS5003;63065;51.082;17.016;2022-09-09T09:25:30;6;6;
56175;PMS5003;63065;51.082;17.016;2022-09-09T09:27:57;6;5;
56175;PMS5003;63065;51.082;17.016;2022-09-09T09:30:20;5;5;
56175;PMS5003;63065;51.082;17.016;2022-09-09T09:32:49;7;7;
56175;PMS5003;63065;51.082;17.016;2022-09-09T09:35:11;5;5;
56175;PMS5003;63065;51.082;17.016;2022-09-09T09:37:37;5;5;
56175;PMS5003;63065;51.082;17.016;2022-09-09T09:42:28;8;7;
56175;PMS5003;63065;51.082;17.016;2022-09-09T09:44:54;6;6;
56175;PMS5003;63065;51.082;17.016;2022-09-09T09:47:20;6;6;
56175;PMS5003;63065;51.082;17.016;2022-09-09T09:52:12;4;4;
56175;PMS5003;63065;51.082;17.016;2022-09-09T09:54:37;8;8;
56175;PMS5003;63065;51.082;17.016;2022-09-09T09:59:33;7;5;
56175;PMS5003;63065;51.082;17.016;2022-09-09T10:01:54;7;4;
56175;PMS5003;63065;51.082;17.016;2022-09-09T10:04:21;6;5;
56175;PMS5003;63065;51.082;17.016;2022-09-09T10:06:46;4;4;
56175;PMS5003;63065;51.082;17.016;2022-09-09T10:11:40;6;6;
56175;PMS5003;63065;51.082;17.016;2022-09-09T10:14:04;5;5;
56175;PMS5003;63065;51.082;17.016;2022-09-09T10:16:33;5;5;
56175;PMS5003;63065;51.082;17.016;2022-09-09T10:18:57;9;6;
56175;PMS5003;63065;51.082;17.016;2022-09-09T10:21:22;6;6;
56175;PMS5003;63065;51.082;17.016;2022-09-09T10:23:51;5;5;
56175;PMS5003;63065;51.082;17.016;2022-09-09T10:26:14;6;4;
56175;PMS5003;63065;51.082;17.016;2022-09-09T10:28:42;3;3;
56175;PMS5003;63065;51.082;17.016;2022-09-09T10:31:06;2;2;
56175;PMS5003;63065;51.082;17.016;2022-09-09T10:33:28;2;2;
56175;PMS5003;63065;51.082;17.016;2022-09-09T10:35:56;4;4;
56175;PMS5003;63065;51.082;17.016;2022-09-09T10:38:19;6;6;
56175;PMS5003;63065;51.082;17.016;2022-09-09T10:40:48;4;4;
56175;PMS5003;63065;51.082;17.016;2022-09-09T10:43:12;4;4;
56175;PMS5003;63065;51.082;17.016;2022-09-09T10:45:37;5;4;
56175;PMS5003;63065;51.082;17.016;2022-09-09T10:48:05;4;4;
56175;PMS5003;63065;51.082;17.016;2022-09-09T10:50:29;4;4;
56175;PMS5003;63065;51.082;17.016;2022-09-09T10:52:54;5;5;
56175;PMS5003;63065;51.082;17.016;2022-09-09T10:55:18;6;6;
56175;PMS5003;63065;51.082;17.016;2022-09-09T10:57:45;5;2;
56175;PMS5003;63065;51.082;17.016;2022-09-09T11:00:15;5;5;
56175;PMS5003;63065;51.082;17.016;2022-09-09T11:02:35;3;3;
56175;PMS5003;63065;51.082;17.016;2022-09-09T11:05:02;5;5;
56175;PMS5003;63065;51.082;17.016;2022-09-09T11:07:28;9;8;
56175;PMS5003;63065;51.082;17.016;2022-09-09T11:09:53;3;3;
56175;PMS5003;63065;51.082;17.016;2022-09-09T11:12:18;7;5;
56175;PMS5003;63065;51.082;17.016;2022-09-09T11:14:44;4;4;
56175;PMS5003;63065;51.082;17.016;2022-09-09T11:17:10;5;5;
56175;PMS5003;63065;51.082;17.016;2022-09-09T11:19:35;6;4;
56175;PMS5003;63065;51.082;17.016;2022-09-09T11:22:01;7;7;
56175;PMS5003;63065;51.082;17.016;2022-09-09T11:24:26;6;6;
56175;PMS5003;63065;51.082;17.016;2022-09-09T11:26:52;3;3;
56175;PMS5003;63065;51.082;17.016;2022-09-09T11:31:44;3;3;
56175;PMS5003;63065;51.082;17.016;2022-09-09T11:34:14;4;4;
56175;PMS5003;63065;51.082;17.016;2022-09-09T11:36:40;4;4;
56175;PMS5003;63065;51.082;17.016;2022-09-09T11:39:01;3;3;
56175;PMS5003;63065;51.082;17.016;2022-09-09T11:41:32;6;5;
56175;PMS5003;63065;51.082;17.016;2022-09-09T11:43:51;7;7;
56175;PMS5003;63065;51.082;17.016;2022-09-09T11:46:17;5;5;
56175;PMS5003;63065;51.082;17.016;2022-09-09T11:48:43;4;4;
56175;PMS5003;63065;51.082;17.016;2022-09-09T11:51:09;4;4;
56175;PMS5003;63065;51.082;17.016;2022-09-09T11:53:34;7;7;
56175;PMS5003;63065;51.082;17.016;2022-09-09T11:56:01;4;4;
56175;PMS5003;63065;51.082;17.016;2022-09-09T11:58:26;5;3;
56175;PMS5003;63065;51.082;17.016;2022-09-09T12:00:51;3;3;
56175;PMS5003;63065;51.082;17.016;2022-09-09T12:05:44;4;4;
56175;PMS5003;63065;51.082;17.016;2022-09-09T12:08:09;3;3;
56175;PMS5003;63065;51.082;17.016;2022-09-09T12:10:35;6;6;
56175;PMS5003;63065;51.082;17.016;2022-09-09T12:15:27;5;5;
56175;PMS5003;63065;51.082;17.016;2022-09-09T12:17:52;8;6;
56175;PMS5003;63065;51.082;17.016;2022-09-09T12:20:18;5;5;
56175;PMS5003;63065;51.082;17.016;2022-09-09T12:22:47;5;5;
56175;PMS5003;63065;51.082;17.016;2022-09-09T12:25:12;5;5;
56175;PMS5003;63065;51.082;17.016;2022-09-09T12:27:35;4;4;
56175;PMS5003;63065;51.082;17.016;2022-09-09T12:30:01;6;6;
56175;PMS5003;63065;51.082;17.016;2022-09-09T12:32:26;9;9;
56175;PMS5003;63065;51.082;17.016;2022-09-09T12:34:52;4;4;
56175;PMS5003;63065;51.082;17.016;2022-09-09T12:37:20;5;5;
56175;PMS5003;63065;51.082;17.016;2022-09-09T12:39:44;3;3;
56175;PMS5003;63065;51.082;17.016;2022-09-09T12:44:34;3;3;
56175;PMS5003;63065;51.082;17.016;2022-09-09T12:47:01;6;4;
56175;PMS5003;63065;51.082;17.016;2022-09-09T12:49:27;5;5;
56175;PMS5003;63065;51.082;17.016;2022-09-09T12:51:52;5;5;
56175;PMS5003;63065;51.082;17.016;2022-09-09T12:54:18;5;5;
56175;PMS5003;63065;51.082;17.016;2022-09-09T12:56:45;4;4;
56175;PMS5003;63065;51.082;17.016;2022-09-09T13:01:35;4;3;
56175;PMS5003;63065;51.082;17.016;2022-09-09T13:04:00;4;4;
56175;PMS5003;63065;51.082;17.016;2022-09-09T13:06:26;4;4;
56175;PMS5003;63065;51.082;17.016;2022-09-09T13:08:52;3;3;
56175;PMS5003;63065;51.082;17.016;2022-09-09T13:11:18;3;3;
56175;PMS5003;63065;51.082;17.016;2022-09-09T13:13:43;6;4;
56175;PMS5003;63065;51.082;17.016;2022-09-09T13:18:35;3;3;
56175;PMS5003;63065;51.082;17.016;2022-09-09T13:21:00;3;3;
56175;PMS5003;63065;51.082;17.016;2022-09-09T13:23:26;3;3;
56175;PMS5003;63065;51.082;17.016;2022-09-09T13:25:52;3;3;
56175;PMS5003;63065;51.082;17.016;2022-09-09T13:28:20;4;4;
56175;PMS5003;63065;51.082;17.016;2022-09-09T13:30:43;4;4;
56175;PMS5003;63065;51.082;17.016;2022-09-09T13:35:35;4;4;
56175;PMS5003;63065;51.082;17.016;2022-09-09T13:40:26;3;3;
56175;PMS5003;63065;51.082;17.016;2022-09-09T13:42:52;4;4;
56175;PMS5003;63065;51.082;17.016;2022-09-09T13:45:18;4;2;
56175;PMS5003;63065;51.082;17.016;2022-09-09T13:47:43;3;3;
56175;PMS5003;63065;51.082;17.016;2022-09-09T13:52:35;3;3;
56175;PMS5003;63065;51.082;17.016;2022-09-09T13:55:00;3;3;
56175;PMS5003;63065;51.082;17.016;2022-09-09T13:57:25;3;3;
56175;PMS5003;63065;51.082;17.016;2022-09-09T13:59:52;2;2;
56175;PMS5003;63065;51.082;17.016;2022-09-09T14:02:17;3;3;
56175;PMS5003;63065;51.082;17.016;2022-09-09T14:04:43;4;4;
56175;PMS5003;63065;51.082;17.016;2022-09-09T14:07:09;2;2;
56175;PMS5003;63065;51.082;17.016;2022-09-09T14:09:34;8;7;
56175;PMS5003;63065;51.082;17.016;2022-09-09T14:11:59;3;3;
56175;PMS5003;63065;51.082;17.016;2022-09-09T14:14:24;4;4;
56175;PMS5003;63065;51.082;17.016;2022-09-09T14:16:50;2;2;
56175;PMS5003;63065;51.082;17.016;2022-09-09T14:19:16;5;5;
56175;PMS5003;63065;51.082;17.016;2022-09-09T14:21:42;4;4;
56175;PMS5003;63065;51.082;17.016;2022-09-09T14:24:07;4;4;
56175;PMS5003;63065;51.082;17.016;2022-09-09T14:26:33;1;1;
56175;PMS5003;63065;51.082;17.016;2022-09-09T14:28:59;5;3;
56175;PMS5003;63065;51.082;17.016;2022-09-09T14:31:25;4;4;
56175;PMS5003;63065;51.082;17.016;2022-09-09T14:33:51;3;3;
56175;PMS5003;63065;51.082;17.016;2022-09-09T14:36:16;6;5;
56175;PMS5003;63065;51.082;17.016;2022-09-09T14:38:42;4;4;
56175;PMS5003;63065;51.082;17.016;2022-09-09T14:41:08;5;3;
56175;PMS5003;63065;51.082;17.016;2022-09-09T14:43:33;5;4;
56175;PMS5003;63065;51.082;17.016;2022-09-09T14:48:24;4;4;
56175;PMS5003;63065;51.082;17.016;2022-09-09T14:50:50;4;4;
56175;PMS5003;63065;51.082;17.016;2022-09-09T14:53:16;3;3;
56175;PMS5003;63065;51.082;17.016;2022-09-09T14:55:41;2;2;
56175;PMS5003;63065;51.082;17.016;2022-09-09T14:58:07;6;6;
56175;PMS5003;63065;51.082;17.016;2022-09-09T15:00:32;7;6;
56175;PMS5003;63065;51.082;17.016;2022-09-09T15:02:58;5;5;
56175;PMS5003;63065;51.082;17.016;2022-09-09T15:05:24;6;4;
56175;PMS5003;63065;51.082;17.016;2022-09-09T15:07:50;3;3;
56175;PMS5003;63065;51.082;17.016;2022-09-09T15:10:16;4;4;
56175;PMS5003;63065;51.082;17.016;2022-09-09T15:12:41;4;4;
56175;PMS5003;63065;51.082;17.016;2022-09-09T15:15:07;4;4;
56175;PMS5003;63065;51.082;17.016;2022-09-09T15:17:33;7;7;
56175;PMS5003;63065;51.082;17.016;2022-09-09T15:19:58;5;5;
56175;PMS5003;63065;51.082;17.016;2022-09-09T15:22:24;5;5;
56175;PMS5003;63065;51.082;17.016;2022-09-09T15:24:50;4;4;
56175;PMS5003;63065;51.082;17.016;2022-09-09T15:27:15;5;5;
56175;PMS5003;63065;51.082;17.016;2022-09-09T15:29:41;4;4;
56175;PMS5003;63065;51.082;17.016;2022-09-09T15:32:06;6;6;
56175;PMS5003;63065;51.082;17.016;2022-09-09T15:34:32;6;6;
56175;PMS5003;63065;51.082;17.016;2022-09-09T15:36:59;6;6;
56175;PMS5003;63065;51.082;17.016;2022-09-09T15:39:24;5;5;
56175;PMS5003;63065;51.082;17.016;2022-09-09T15:41:49;5;4;
56175;PMS5003;63065;51.082;17.016;2022-09-09T15:44:15;5;4;
56175;PMS5003;63065;51.082;17.016;2022-09-09T15:46:41;5;5;
56175;PMS5003;63065;51.082;17.016;2022-09-09T15:49:07;8;8;
56175;PMS5003;63065;51.082;17.016;2022-09-09T15:51:33;5;5;
56175;PMS5003;63065;51.082;17.016;2022-09-09T15:53:58;5;5;
56175;PMS5003;63065;51.082;17.016;2022-09-09T15:56:24;4;4;
56175;PMS5003;63065;51.082;17.016;2022-09-09T15:58:49;6;6;
56175;PMS5003;63065;51.082;17.016;2022-09-09T16:01:15;6;6;
56175;PMS5003;63065;51.082;17.016;2022-09-09T16:03:41;4;4;
56175;PMS5003;63065;51.082;17.016;2022-09-09T16:06:06;5;5;
56175;PMS5003;63065;51.082;17.016;2022-09-09T16:08:32;5;5;
56175;PMS5003;63065;51.082;17.016;2022-09-09T16:13:24;6;6;
56175;PMS5003;63065;51.082;17.016;2022-09-09T16:15:53;5;4;
56175;PMS5003;63065;51.082;17.016;2022-09-09T16:18:15;6;5;
56175;PMS5003;63065;51.082;17.016;2022-09-09T16:20:40;7;7;
56175;PMS5003;63065;51.082;17.016;2022-09-09T16:23:06;8;6;
56175;PMS5003;63065;51.082;17.016;2022-09-09T16:25:32;9;9;
56175;PMS5003;63065;51.082;17.016;2022-09-09T16:27:57;7;6;
56175;PMS5003;63065;51.082;17.016;2022-09-09T16:30:23;7;6;
56175;PMS5003;63065;51.082;17.016;2022-09-09T16:32:48;7;6;
56175;PMS5003;63065;51.082;17.016;2022-09-09T16:35:14;11;9;
56175;PMS5003;63065;51.082;17.016;2022-09-09T16:37:40;10;10;
56175;PMS5003;63065;51.082;17.016;2022-09-09T16:40:06;11;9;
56175;PMS5003;63065;51.082;17.016;2022-09-09T16:42:31;9;8;
56175;PMS5003;63065;51.082;17.016;2022-09-09T16:44:57;10;10;
56175;PMS5003;63065;51.082;17.016;2022-09-09T16:47:22;7;7;
56175;PMS5003;63065;51.082;17.016;2022-09-09T16:49:48;8;8;
56175;PMS5003;63065;51.082;17.016;2022-09-09T16:52:13;12;12;
56175;PMS5003;63065;51.082;17.016;2022-09-09T16:54:38;11;11;